createdAt,value
2022-08-10T00:00:34.988Z,60.20
2022-08-10T00:03:02.001Z,60.10
2022-08-10T00:05:26.446Z,60.20
2022-08-10T00:07:50.774Z,60.50
2022-08-10T00:10:16.916Z,60.90
2022-08-10T00:12:53.707Z,61.60
2022-08-10T00:15:52.266Z,61.50
2022-08-10T00:18:06.505Z,61.70
2022-08-10T00:20:30.253Z,61.70
2022-08-10T00:22:57.526Z,61.80
2022-08-10T00:25:22.101Z,62.60
2022-08-10T00:27:52.094Z,62.50
2022-08-10T00:30:28.457Z,62.70
2022-08-10T00:35:44.300Z,63.10
2022-08-10T00:38:07.984Z,62.80
2022-08-10T00:40:37.858Z,63.30
2022-08-10T00:43:01.852Z,63.60
2022-08-10T00:45:25.928Z,63.70
2022-08-10T00:47:51.503Z,64.00
2022-08-10T00:50:18.031Z,63.90
2022-08-10T00:52:42.066Z,64.20
2022-08-10T00:55:07.456Z,64.60
2022-08-10T00:57:31.816Z,64.60
2022-08-10T00:59:58.542Z,65.30
2022-08-10T01:02:24.166Z,65.70
2022-08-10T01:05:00.829Z,66.00
2022-08-10T01:07:43.374Z,66.00
2022-08-10T01:10:22.754Z,65.60
2022-08-10T01:13:11.321Z,66.20
2022-08-10T01:15:53.488Z,66.50
2022-08-10T01:18:25.636Z,66.90
2022-08-10T01:21:18.460Z,67.00
2022-08-10T01:24:25.288Z,67.00
2022-08-10T01:27:20.475Z,66.40
2022-08-10T01:30:04.030Z,67.40
2022-08-10T01:32:38.911Z,67.20
2022-08-10T01:35:13.686Z,67.50
2022-08-10T01:37:52.118Z,67.40
2022-08-10T01:40:18.751Z,68.20
2022-08-10T01:42:46.930Z,67.90
2022-08-10T01:45:15.453Z,68.10
2022-08-10T01:48:00.591Z,68.10
2022-08-10T01:50:30.720Z,69.00
2022-08-10T01:53:09.261Z,69.10
2022-08-10T01:55:33.927Z,68.40
2022-08-10T01:58:01.031Z,68.70
2022-08-10T02:00:28.071Z,69.20
2022-08-10T02:02:54.149Z,70.00
2022-08-10T02:05:19.029Z,69.80
2022-08-10T02:07:44.180Z,69.60
2022-08-10T02:10:13.480Z,69.80
2022-08-10T02:12:38.477Z,70.00
2022-08-10T02:15:06.829Z,69.50
2022-08-10T02:18:00.113Z,69.90
2022-08-10T02:20:23.586Z,70.50
2022-08-10T02:22:54.474Z,70.40
2022-08-10T02:25:41.227Z,70.40
2022-08-10T02:28:05.339Z,70.70
2022-08-10T02:30:31.840Z,70.30
2022-08-10T02:33:00.334Z,70.60
2022-08-10T02:35:26.010Z,70.50
2022-08-10T02:37:56.762Z,69.00
2022-08-10T02:45:14.558Z,71.20
2022-08-10T02:45:15.617Z,70.00
2022-08-10T02:46:04.029Z,70.90
2022-08-10T02:48:39.070Z,71.30
2022-08-10T02:51:11.303Z,71.50
2022-08-10T02:53:56.240Z,71.60
2022-08-10T02:56:27.794Z,72.20
2022-08-10T02:58:58.550Z,72.50
2022-08-10T03:01:28.810Z,72.20
2022-08-10T03:04:00.591Z,71.70
2022-08-10T03:06:34.315Z,72.60
2022-08-10T03:09:00.928Z,72.20
2022-08-10T03:12:34.811Z,72.50
2022-08-10T03:14:14.097Z,73.40
2022-08-10T03:16:39.122Z,73.40
2022-08-10T03:19:07.798Z,73.50
2022-08-10T03:21:52.930Z,75.10
2022-08-10T03:24:32.620Z,73.60
2022-08-10T03:26:58.838Z,75.40
2022-08-10T03:29:24.286Z,76.00
2022-08-10T03:31:48.442Z,75.90
2022-08-10T03:34:22.224Z,73.90
2022-08-10T03:36:57.611Z,74.10
2022-08-10T03:39:21.285Z,74.30
2022-08-10T03:41:53.275Z,74.00
2022-08-10T03:44:22.965Z,73.60
2022-08-10T03:46:48.661Z,74.30
2022-08-10T03:49:15.124Z,74.40
2022-08-10T03:51:39.497Z,74.80
2022-08-10T03:54:07.255Z,76.60
2022-08-10T03:56:33.006Z,77.40
2022-08-10T03:58:57.257Z,77.90
2022-08-10T04:01:21.921Z,78.00
2022-08-10T04:04:11.773Z,77.90
2022-08-10T04:06:39.762Z,77.50
2022-08-10T04:09:05.390Z,78.30
2022-08-10T04:11:29.402Z,77.50
2022-08-10T04:13:52.988Z,78.00
2022-08-10T04:16:16.597Z,78.00
2022-08-10T04:18:40.282Z,77.20
2022-08-10T04:21:11.892Z,77.70
2022-08-10T04:23:43.405Z,78.00
2022-08-10T04:26:07.603Z,78.40
2022-08-10T04:28:32.278Z,78.70
2022-08-10T04:30:57.015Z,78.30
2022-08-10T04:33:23.757Z,78.70
2022-08-10T04:35:48.759Z,78.60
2022-08-10T04:38:14.187Z,78.80
2022-08-10T04:40:39.690Z,78.60
2022-08-10T04:43:12.422Z,78.20
2022-08-10T04:45:49.283Z,78.90
2022-08-10T04:48:40.839Z,79.00
2022-08-10T04:50:59.666Z,78.30
2022-08-10T04:53:23.738Z,78.30
2022-08-10T04:55:48.612Z,78.20
2022-08-10T04:58:12.525Z,78.00
2022-08-10T05:00:36.338Z,78.10
2022-08-10T05:03:00.088Z,78.20
2022-08-10T05:05:23.818Z,78.10
2022-08-10T05:07:56.755Z,78.00
2022-08-10T05:10:20.665Z,78.40
2022-08-10T05:12:47.047Z,77.60
2022-08-10T05:15:13.896Z,77.80
2022-08-10T05:17:39.029Z,77.90
2022-08-10T05:20:06.919Z,77.40
2022-08-10T05:22:31.201Z,76.90
2022-08-10T05:24:54.816Z,74.90
2022-08-10T05:27:18.580Z,74.70
2022-08-10T05:29:43.588Z,74.50
2022-08-10T05:32:24.819Z,73.90
2022-08-10T05:34:48.489Z,73.70
2022-08-10T05:38:09.348Z,73.80
2022-08-10T05:39:57.822Z,72.00
2022-08-10T05:42:22.103Z,71.70
2022-08-10T05:44:47.273Z,71.40
2022-08-10T05:47:12.864Z,70.60
2022-08-10T05:49:37.300Z,70.10
2022-08-10T05:52:00.931Z,69.00
2022-08-10T05:54:26.095Z,68.80
2022-08-10T05:56:55.860Z,68.50
2022-08-10T06:00:33.384Z,68.10
2022-08-10T06:02:31.310Z,67.80
2022-08-10T06:04:55.536Z,67.90
2022-08-10T06:07:22.098Z,67.90
2022-08-10T06:09:59.396Z,68.30
2022-08-10T06:12:30.148Z,67.60
2022-08-10T06:15:06.051Z,66.80
2022-08-10T06:17:35.358Z,66.60
2022-08-10T06:20:00.195Z,66.30
2022-08-10T06:22:24.885Z,64.80
2022-08-10T06:25:18.411Z,63.10
2022-08-10T06:27:34.661Z,61.60
2022-08-10T06:30:01.088Z,64.70
2022-08-10T06:32:28.516Z,62.20
2022-08-10T06:34:57.804Z,62.20
2022-08-10T06:37:26.797Z,62.70
2022-08-10T06:39:50.619Z,61.40
2022-08-10T06:42:18.623Z,64.10
2022-08-10T06:44:59.815Z,64.80
2022-08-10T06:47:30.789Z,61.50
2022-08-10T06:50:02.861Z,63.30
2022-08-10T06:52:34.708Z,64.20
2022-08-10T06:55:00.759Z,62.00
2022-08-10T06:57:32.786Z,61.80
2022-08-10T06:59:59.739Z,61.10
2022-08-10T07:02:31.766Z,59.50
2022-08-10T07:05:01.991Z,60.60
2022-08-10T07:07:31.184Z,59.40
2022-08-10T07:09:59.017Z,59.40
2022-08-10T07:12:25.807Z,58.90
2022-08-10T07:14:51.670Z,58.00
2022-08-10T07:17:18.726Z,59.10
2022-08-10T07:19:50.305Z,59.00
2022-08-10T07:23:53.774Z,59.70
2022-08-10T07:25:06.839Z,58.90
2022-08-10T07:27:58.345Z,58.80
2022-08-10T07:30:16.446Z,58.50
2022-08-10T07:32:44.081Z,57.40
2022-08-10T07:35:10.058Z,56.90
2022-08-10T07:37:37.631Z,55.90
2022-08-10T07:40:04.969Z,56.60
2022-08-10T07:42:31.633Z,56.80
2022-08-10T07:44:55.254Z,55.80
2022-08-10T07:47:46.043Z,56.70
2022-08-10T07:50:12.766Z,55.90
2022-08-10T07:52:40.020Z,56.60
2022-08-10T07:55:05.736Z,55.80
2022-08-10T07:57:34.818Z,55.10
2022-08-10T08:00:07.933Z,55.80
2022-08-10T08:02:43.544Z,54.70
2022-08-10T08:05:13.635Z,55.10
2022-08-10T08:07:59.822Z,55.00
2022-08-10T08:10:27.340Z,54.80
2022-08-10T08:12:52.750Z,54.30
2022-08-10T08:16:17.330Z,54.50
2022-08-10T08:18:05.658Z,54.10
2022-08-10T08:20:30.416Z,53.70
2022-08-10T08:24:06.550Z,53.80
2022-08-10T08:25:41.879Z,53.70
2022-08-10T08:28:06.465Z,53.30
2022-08-10T08:30:31.257Z,53.60
2022-08-10T08:33:19.718Z,51.40
2022-08-10T08:35:59.342Z,52.70
2022-08-10T08:38:33.687Z,51.60
2022-08-10T08:41:16.808Z,50.90
2022-08-10T08:43:55.495Z,50.90
2022-08-10T08:47:03.386Z,50.70
2022-08-10T08:50:07.919Z,49.80
2022-08-10T08:52:49.097Z,49.50
2022-08-10T08:56:03.301Z,49.30
2022-08-10T08:58:40.580Z,48.10
2022-08-10T09:01:40.301Z,47.80
2022-08-10T09:04:22.425Z,48.10
2022-08-10T09:07:59.404Z,47.50
2022-08-10T09:10:05.380Z,48.00
2022-08-10T09:12:51.635Z,46.80
2022-08-10T09:15:40.732Z,46.20
2022-08-10T09:18:15.653Z,47.10
2022-08-10T09:20:46.607Z,46.70
2022-08-10T09:23:22.066Z,47.30
2022-08-10T09:26:14.155Z,46.50
2022-08-10T09:28:41.445Z,47.30
2022-08-10T09:31:22.097Z,45.70
2022-08-10T09:36:22.286Z,45.10
2022-08-10T09:36:49.145Z,45.40
2022-08-10T09:40:46.317Z,44.00
2022-08-10T09:42:15.911Z,44.30
2022-08-10T09:45:00.913Z,43.10
2022-08-10T09:48:01.842Z,44.00
2022-08-10T09:51:16.457Z,43.20
2022-08-10T09:53:36.205Z,42.90
2022-08-10T09:56:21.403Z,41.30
2022-08-10T09:59:27.242Z,41.40
2022-08-10T10:02:03.805Z,41.60
2022-08-10T10:04:42.190Z,41.70
2022-08-10T10:07:09.323Z,40.80
2022-08-10T10:09:40.622Z,40.30
2022-08-10T10:12:17.904Z,41.70
2022-08-10T10:15:24.064Z,40.10
2022-08-10T10:18:08.769Z,38.90
2022-08-10T10:20:41.766Z,39.60
2022-08-10T10:23:16.633Z,39.40
2022-08-10T10:25:50.890Z,40.00
2022-08-10T10:29:11.777Z,39.10
2022-08-10T10:31:31.819Z,38.50
2022-08-10T10:34:07.555Z,38.10
2022-08-10T10:36:34.006Z,38.80
2022-08-10T10:39:01.434Z,41.80
2022-08-10T10:41:56.188Z,40.90
2022-08-10T10:44:45.612Z,38.80
2022-08-10T10:47:30.168Z,38.20
2022-08-10T10:50:02.072Z,38.40
2022-08-10T10:52:44.402Z,40.00
2022-08-10T10:55:20.613Z,39.40
2022-08-10T10:58:01.100Z,38.60
2022-08-10T11:00:30.810Z,37.40
2022-08-10T11:03:37.910Z,37.90
2022-08-10T11:06:11.655Z,38.60
2022-08-10T11:08:52.294Z,38.20
2022-08-10T11:12:00.337Z,38.40
2022-08-10T11:14:24.340Z,38.00
2022-08-10T11:17:00.397Z,38.70
2022-08-10T11:20:02.924Z,36.40
2022-08-10T11:22:40.253Z,36.70
2022-08-10T11:25:14.460Z,36.00
2022-08-10T11:27:48.916Z,36.60
2022-08-10T11:30:18.634Z,36.70
2022-08-10T11:33:08.745Z,36.50
2022-08-10T11:35:42.758Z,38.30
2022-08-10T11:38:32.855Z,37.90
2022-08-10T11:42:05.725Z,37.30
2022-08-10T11:44:10.574Z,36.00
2022-08-10T11:46:41.848Z,36.20
2022-08-10T11:49:13.202Z,36.40
2022-08-10T11:51:45.060Z,35.40
2022-08-10T11:54:15.605Z,35.90
2022-08-10T11:57:01.800Z,37.30
2022-08-10T11:59:46.481Z,36.30
2022-08-10T12:02:16.144Z,35.30
2022-08-10T12:04:45.966Z,37.90
2022-08-10T12:10:01.757Z,35.10
2022-08-10T12:10:12.095Z,34.90
2022-08-10T12:12:47.470Z,34.70
2022-08-10T12:15:18.777Z,33.80
2022-08-10T12:17:50.185Z,34.20
2022-08-10T12:20:25.472Z,34.20
2022-08-10T12:22:56.903Z,33.70
2022-08-10T12:25:56.055Z,35.70
2022-08-10T12:28:33.233Z,34.70
2022-08-10T12:31:12.150Z,33.10
2022-08-10T12:34:02.503Z,32.70
2022-08-10T12:36:34.968Z,34.10
2022-08-10T12:39:07.671Z,34.20
2022-08-10T12:44:41.678Z,33.70
2022-08-10T12:47:20.367Z,33.70
2022-08-10T12:50:29.684Z,34.60
2022-08-10T12:52:49.583Z,34.60
2022-08-10T12:55:15.205Z,33.00
2022-08-10T12:57:39.476Z,33.20
2022-08-10T13:00:09.916Z,33.30
2022-08-10T13:02:48.839Z,32.90
2022-08-10T13:05:15.049Z,32.90
2022-08-10T13:08:26.000Z,33.20
2022-08-10T13:10:26.155Z,33.30
2022-08-10T13:12:55.791Z,32.40
2022-08-10T13:15:49.446Z,32.50
2022-08-10T13:18:18.852Z,32.00
2022-08-10T13:20:43.475Z,32.90
2022-08-10T13:23:14.543Z,32.10
2022-08-10T13:25:42.053Z,32.20
2022-08-10T13:28:37.100Z,32.10
2022-08-10T13:30:58.345Z,32.40
2022-08-10T13:34:41.362Z,31.70
2022-08-10T13:36:12.937Z,31.30
2022-08-10T13:38:37.496Z,31.50
2022-08-10T13:41:02.481Z,31.70
2022-08-10T13:43:28.347Z,31.60
2022-08-10T13:45:56.465Z,30.90
2022-08-10T13:48:24.635Z,33.00
2022-08-10T13:50:49.544Z,31.60
2022-08-10T13:53:16.250Z,30.60
2022-08-10T13:55:54.401Z,30.00
2022-08-10T13:58:30.880Z,30.30
2022-08-10T14:00:57.836Z,30.10
2022-08-10T14:03:22.671Z,30.60
2022-08-10T14:05:54.078Z,29.90
2022-08-10T14:08:23.382Z,29.80
2022-08-10T14:11:09.843Z,29.50
2022-08-10T14:13:39.027Z,29.80
2022-08-10T14:16:07.738Z,29.60
2022-08-10T14:18:35.871Z,29.00
2022-08-10T14:21:00.648Z,29.60
2022-08-10T14:23:29.212Z,29.00
2022-08-10T14:25:57.540Z,29.10
2022-08-10T14:28:28.355Z,30.10
2022-08-10T14:31:02.088Z,29.90
2022-08-10T14:33:29.185Z,29.50
2022-08-10T14:36:21.386Z,28.80
2022-08-10T14:38:40.543Z,29.10
2022-08-10T14:41:15.247Z,29.00
2022-08-10T14:44:06.174Z,29.10
2022-08-10T14:46:30.415Z,28.60
2022-08-10T14:49:00.147Z,28.90
2022-08-10T14:51:47.783Z,28.80
2022-08-10T14:54:17.622Z,29.00
2022-08-10T14:56:41.925Z,29.10
2022-08-10T14:59:09.439Z,28.60
2022-08-10T15:01:59.904Z,28.80
2022-08-10T15:04:28.976Z,28.80
2022-08-10T15:06:57.604Z,28.60
2022-08-10T15:09:25.358Z,29.70
2022-08-10T15:12:14.127Z,28.50
2022-08-10T15:14:42.438Z,30.40
2022-08-10T15:17:09.190Z,30.50
2022-08-10T15:20:04.523Z,28.90
2022-08-10T15:22:45.237Z,29.20
2022-08-10T15:25:17.639Z,29.20
2022-08-10T15:27:53.917Z,28.50
2022-08-10T15:30:19.482Z,28.90
2022-08-10T15:33:12.107Z,29.00
2022-08-10T15:35:57.074Z,28.60
2022-08-10T15:38:34.925Z,27.70
2022-08-10T15:41:00.208Z,28.40
2022-08-10T15:43:27.681Z,28.80
2022-08-10T15:46:02.631Z,29.10
2022-08-10T15:48:30.718Z,28.80
2022-08-10T15:51:05.882Z,28.60
2022-08-10T15:53:49.904Z,28.60
2022-08-10T15:56:28.231Z,28.40
2022-08-10T15:58:55.369Z,27.80
2022-08-10T16:02:12.567Z,28.20
2022-08-10T16:04:17.407Z,27.90
2022-08-10T16:06:50.006Z,28.10
2022-08-10T16:10:24.577Z,28.00
2022-08-10T16:12:05.814Z,28.70
2022-08-10T16:14:35.807Z,28.80
2022-08-10T16:17:01.659Z,29.00
2022-08-10T16:19:27.505Z,29.20
2022-08-10T16:21:58.977Z,28.70
2022-08-10T16:24:23.707Z,29.30
2022-08-10T16:26:52.671Z,29.60
2022-08-10T16:29:22.863Z,29.20
2022-08-10T16:31:53.124Z,29.30
2022-08-10T16:34:18.276Z,30.00
2022-08-10T16:36:52.837Z,29.60
2022-08-10T16:39:57.097Z,28.90
2022-08-10T16:42:16.705Z,28.70
2022-08-10T16:44:54.636Z,28.50
2022-08-10T16:47:21.779Z,28.40
2022-08-10T16:49:48.419Z,28.90
2022-08-10T16:52:14.956Z,29.20
2022-08-10T16:54:41.700Z,29.20
2022-08-10T16:57:07.020Z,29.70
2022-08-10T16:59:33.752Z,29.80
2022-08-10T17:01:58.899Z,30.10
2022-08-10T17:04:25.020Z,29.70
2022-08-10T17:06:56.443Z,30.10
2022-08-10T17:09:24.381Z,30.30
2022-08-10T17:11:53.801Z,30.00
2022-08-10T17:14:18.480Z,30.70
2022-08-10T17:16:45.295Z,30.20
2022-08-10T17:19:15.735Z,30.20
2022-08-10T17:21:51.534Z,30.60
2022-08-10T17:24:17.151Z,30.20
2022-08-10T17:26:42.465Z,30.40
2022-08-10T17:29:53.321Z,30.00
2022-08-10T17:32:02.269Z,30.30
2022-08-10T17:34:33.049Z,30.30
2022-08-10T17:37:01.219Z,31.00
2022-08-10T17:39:31.401Z,31.10
2022-08-10T17:41:57.585Z,30.40
2022-08-10T17:44:23.098Z,30.80
2022-08-10T17:46:48.028Z,30.70
2022-08-10T17:49:14.308Z,30.60
2022-08-10T17:51:40.310Z,30.90
2022-08-10T17:54:10.161Z,31.30
2022-08-10T17:56:37.953Z,31.60
2022-08-10T17:59:10.090Z,31.60
2022-08-10T18:02:01.507Z,31.70
2022-08-10T18:04:27.945Z,31.60
2022-08-10T18:06:56.127Z,31.60
2022-08-10T18:09:28.891Z,31.60
2022-08-10T18:12:02.378Z,31.30
2022-08-10T18:14:35.410Z,31.50
2022-08-10T18:17:01.794Z,31.60
2022-08-10T18:19:31.354Z,31.40
2022-08-10T18:21:56.093Z,31.60
2022-08-10T18:24:22.623Z,32.00
2022-08-10T18:26:50.816Z,31.40
2022-08-10T18:29:19.556Z,31.20
2022-08-10T18:31:45.767Z,31.20
2022-08-10T18:34:13.647Z,30.80
2022-08-10T18:36:42.581Z,31.60
2022-08-10T18:39:08.460Z,31.20
2022-08-10T18:41:36.706Z,31.30
2022-08-10T18:44:11.248Z,31.30
2022-08-10T18:46:47.828Z,31.20
2022-08-10T18:49:19.981Z,31.40
2022-08-10T18:54:48.383Z,31.40
2022-08-10T18:57:23.738Z,32.40
2022-08-10T19:00:10.360Z,31.90
2022-08-10T19:03:10.087Z,31.90
2022-08-10T19:05:55.732Z,32.50
2022-08-10T19:09:09.589Z,32.70
2022-08-10T19:12:06.673Z,32.40
2022-08-10T19:14:59.064Z,33.00
2022-08-10T19:17:59.058Z,33.30
2022-08-10T19:20:29.665Z,33.30
2022-08-10T19:23:19.667Z,33.60
2022-08-10T19:26:42.996Z,34.00
2022-08-10T19:28:44.882Z,34.20
2022-08-10T19:31:16.668Z,33.60
2022-08-10T19:34:11.923Z,33.60
2022-08-10T19:36:45.808Z,33.90
2022-08-10T19:39:23.024Z,34.70
2022-08-10T19:41:54.625Z,34.30
2022-08-10T19:44:29.016Z,34.80
2022-08-10T19:47:01.181Z,34.90
2022-08-10T19:49:39.717Z,34.60
2022-08-10T19:52:11.194Z,35.00
2022-08-10T19:54:47.993Z,34.60
2022-08-10T19:57:26.730Z,35.20
2022-08-10T20:00:17.357Z,34.90
2022-08-10T20:02:57.230Z,35.10
2022-08-10T20:05:31.599Z,35.20
2022-08-10T20:08:00.571Z,35.30
2022-08-10T20:10:34.630Z,35.50
2022-08-10T20:13:09.220Z,35.70
2022-08-10T20:15:42.211Z,35.80
2022-08-10T20:18:13.988Z,36.10
2022-08-10T20:20:43.173Z,35.50
2022-08-10T20:23:18.731Z,36.00
2022-08-10T20:25:50.091Z,35.90
2022-08-10T20:28:21.238Z,36.10
2022-08-10T20:30:52.094Z,36.40
2022-08-10T20:33:27.014Z,36.20
2022-08-10T20:35:57.564Z,36.30
2022-08-10T20:38:27.264Z,36.70
2022-08-10T20:41:03.777Z,36.50
2022-08-10T20:43:37.929Z,36.30
2022-08-10T20:46:10.601Z,36.60
2022-08-10T20:48:54.710Z,37.30
2022-08-10T20:51:25.484Z,37.50
2022-08-10T20:54:12.593Z,36.80
2022-08-10T20:56:48.331Z,37.40
2022-08-10T20:59:37.166Z,37.30
2022-08-10T21:02:34.168Z,37.00
2022-08-10T21:05:10.768Z,37.30
2022-08-10T21:08:02.131Z,37.50
2022-08-10T21:10:40.164Z,37.80
2022-08-10T21:13:47.302Z,37.90
2022-08-10T21:16:28.942Z,37.80
2022-08-10T21:19:23.083Z,38.50
2022-08-10T21:22:05.979Z,38.40
2022-08-10T21:24:44.696Z,38.20
2022-08-10T21:27:23.408Z,38.20
2022-08-10T21:30:08.841Z,38.60
2022-08-10T21:32:48.157Z,38.80
2022-08-10T21:35:36.802Z,39.20
2022-08-10T21:38:08.049Z,38.60
2022-08-10T21:41:18.033Z,39.30
2022-08-10T21:44:07.582Z,39.30
2022-08-10T21:47:02.699Z,39.40
2022-08-10T21:49:57.436Z,39.20
2022-08-10T21:52:53.891Z,39.50
2022-08-10T21:55:56.300Z,40.00
2022-08-10T21:58:45.567Z,39.40
2022-08-10T22:01:39.828Z,40.40
2022-08-10T22:04:23.542Z,40.20
2022-08-10T22:07:09.117Z,41.00
2022-08-10T22:09:58.027Z,41.10
2022-08-10T22:12:47.145Z,41.20
2022-08-10T22:15:42.562Z,40.50
2022-08-10T22:18:53.847Z,41.00
2022-08-10T22:21:59.771Z,40.70
2022-08-10T22:24:59.464Z,40.90
2022-08-10T22:27:49.129Z,41.20
2022-08-10T22:30:34.497Z,40.70
2022-08-10T22:33:37.051Z,41.50
2022-08-10T22:36:47.549Z,41.20
2022-08-10T22:40:10.203Z,41.50
2022-08-10T22:42:59.095Z,41.50
2022-08-10T22:45:52.595Z,41.40
2022-08-10T22:48:34.235Z,41.80
2022-08-10T22:51:04.351Z,42.10
2022-08-10T22:53:50.080Z,41.80
2022-08-10T22:56:38.191Z,41.90
2022-08-10T22:59:01.864Z,42.70
2022-08-10T23:01:42.128Z,42.30
2022-08-10T23:04:32.058Z,42.30
2022-08-10T23:07:11.835Z,42.20
2022-08-10T23:09:42.053Z,42.80
2022-08-10T23:12:14.573Z,42.50
2022-08-10T23:14:41.447Z,43.20
2022-08-10T23:18:01.761Z,43.10
2022-08-10T23:20:27.865Z,42.40
2022-08-10T23:22:57.987Z,43.20
2022-08-10T23:25:30.094Z,42.80
2022-08-10T23:28:12.490Z,43.20
2022-08-10T23:30:38.499Z,43.10
2022-08-10T23:33:10.799Z,43.00
2022-08-10T23:36:29.558Z,43.30
2022-08-10T23:38:32.793Z,43.10
2022-08-10T23:41:02.928Z,43.20
2022-08-10T23:43:46.590Z,43.60
2022-08-10T23:46:11.749Z,44.00
2022-08-10T23:48:39.589Z,43.80
2022-08-10T23:51:16.520Z,44.40
2022-08-10T23:53:44.914Z,44.40
2022-08-10T23:56:14.274Z,45.10
2022-08-10T23:58:44.943Z,44.70
